createdAt,value
2018-09-29T00:02:25.193Z,5.76
2018-09-29T00:04:52.174Z,5.78
2018-09-29T00:07:19.211Z,5.73
2018-09-29T00:09:46.205Z,5.74
2018-09-29T00:12:13.190Z,5.73
2018-09-29T00:14:40.182Z,5.75
2018-09-29T00:17:07.138Z,5.89
2018-09-29T00:19:34.094Z,5.98
2018-09-29T00:22:01.086Z,5.91
2018-09-29T00:24:28.082Z,5.77
2018-09-29T00:26:55.059Z,5.71
2018-09-29T00:29:22.027Z,5.66
2018-09-29T00:31:49.004Z,5.64
2018-09-29T00:34:15.974Z,5.63
2018-09-29T00:36:42.962Z,5.57
2018-09-29T00:39:09.950Z,5.62
2018-09-29T00:41:36.938Z,5.63
2018-09-29T00:44:03.974Z,5.59
2018-09-29T00:46:30.970Z,5.59
2018-09-29T00:48:57.937Z,5.56
2018-09-29T00:51:25.083Z,5.51
2018-09-29T00:53:52.076Z,5.44
2018-09-29T00:56:19.225Z,5.40
2018-09-29T00:58:46.890Z,5.40
2018-09-29T01:01:15.286Z,5.38
2018-09-29T01:03:42.332Z,5.41
2018-09-29T01:06:09.343Z,5.37
2018-09-29T01:08:36.306Z,5.31
2018-09-29T01:11:03.594Z,5.23
2018-09-29T01:13:32.585Z,5.16
2018-09-29T01:16:01.466Z,5.14
2018-09-29T01:18:28.451Z,5.11
2018-09-29T01:20:55.416Z,5.05
2018-09-29T01:23:23.054Z,5.04
2018-09-29T01:25:50.772Z,5.03
2018-09-29T01:28:20.700Z,5.02
2018-09-29T01:33:25.462Z,4.95
2018-09-29T01:35:53.041Z,4.92
2018-09-29T01:38:20.922Z,4.89
2018-09-29T01:40:48.463Z,4.91
2018-09-29T01:43:15.661Z,4.88
2018-09-29T01:45:42.611Z,4.82
2018-09-29T01:48:09.597Z,4.78
2018-09-29T01:50:36.577Z,4.84
2018-09-29T01:53:04.546Z,4.80
2018-09-29T01:55:31.545Z,4.71
2018-09-29T01:57:58.551Z,4.71
2018-09-29T02:00:25.521Z,4.70
2018-09-29T02:02:52.792Z,4.66
2018-09-29T02:05:19.779Z,4.66
2018-09-29T02:07:47.073Z,4.62
2018-09-29T02:10:14.069Z,4.68
2018-09-29T02:12:41.174Z,4.75
2018-09-29T02:15:08.986Z,4.71
2018-09-29T02:17:35.990Z,4.64
2018-09-29T02:20:04.182Z,4.62
2018-09-29T02:22:31.516Z,4.66
2018-09-29T02:24:59.958Z,4.73
2018-09-29T02:27:27.767Z,4.93
2018-09-29T02:29:54.738Z,5.06
2018-09-29T02:32:21.697Z,5.15
2018-09-29T02:34:48.649Z,5.26
2018-09-29T02:37:15.625Z,5.33
2018-09-29T02:39:42.612Z,5.39
2018-09-29T02:42:09.603Z,5.49
2018-09-29T02:44:36.555Z,5.58
2018-09-29T02:47:03.538Z,5.61
2018-09-29T02:49:30.498Z,5.65
2018-09-29T02:51:57.465Z,5.67
2018-09-29T02:54:24.532Z,5.57
2018-09-29T02:56:51.494Z,5.48
2018-09-29T02:59:18.487Z,5.50
2018-09-29T03:01:45.468Z,5.58
2018-09-29T03:04:12.442Z,5.64
2018-09-29T03:06:39.467Z,5.74
2018-09-29T03:09:07.018Z,5.80
2018-09-29T03:11:33.994Z,5.87
2018-09-29T03:14:00.964Z,5.91
2018-09-29T03:16:27.930Z,5.93
2018-09-29T03:18:54.902Z,5.97
2018-09-29T03:21:21.860Z,5.92
2018-09-29T03:23:48.829Z,5.93
2018-09-29T03:26:15.817Z,5.83
2018-09-29T03:28:42.794Z,5.85
2018-09-29T03:31:09.753Z,5.69
2018-09-29T03:33:36.751Z,5.69
2018-09-29T03:36:03.698Z,5.64
2018-09-29T03:38:30.670Z,5.68
2018-09-29T03:40:57.667Z,5.70
2018-09-29T03:43:24.651Z,5.74
2018-09-29T03:45:55.463Z,5.68
2018-09-29T03:48:22.420Z,5.81
2018-09-29T03:50:49.379Z,5.88
2018-09-29T03:53:16.447Z,5.88
2018-09-29T03:55:43.378Z,5.99
2018-09-29T03:58:10.340Z,5.99
2018-09-29T04:00:37.324Z,5.98
2018-09-29T04:03:04.320Z,5.96
2018-09-29T04:05:38.074Z,5.93
2018-09-29T04:08:05.036Z,5.97
2018-09-29T04:10:31.977Z,6.04
2018-09-29T04:12:58.955Z,6.02
2018-09-29T04:15:25.905Z,6.03
2018-09-29T04:17:52.853Z,6.02
2018-09-29T04:20:19.817Z,6.00
2018-09-29T04:22:46.753Z,5.98
2018-09-29T04:25:13.707Z,5.97
2018-09-29T04:27:40.670Z,5.96
2018-09-29T04:30:07.650Z,5.97
2018-09-29T04:32:34.610Z,5.99
2018-09-29T04:35:01.565Z,5.99
2018-09-29T04:37:28.513Z,5.99
2018-09-29T04:39:55.481Z,5.95
2018-09-29T04:42:22.414Z,5.90
2018-09-29T04:44:49.374Z,5.78
2018-09-29T04:47:16.325Z,5.70
2018-09-29T04:49:43.294Z,5.56
2018-09-29T04:52:10.258Z,5.55
2018-09-29T04:54:37.224Z,5.59
2018-09-29T04:57:04.176Z,5.69
2018-09-29T04:59:31.155Z,5.80
2018-09-29T05:01:58.109Z,5.88
2018-09-29T05:04:25.158Z,5.90
2018-09-29T05:06:52.125Z,5.93
2018-09-29T05:09:19.078Z,5.96
2018-09-29T05:11:46.046Z,5.97
2018-09-29T05:14:13.003Z,5.98
2018-09-29T05:16:39.964Z,5.94
2018-09-29T05:19:06.914Z,5.86
2018-09-29T05:21:33.873Z,5.75
2018-09-29T05:24:00.832Z,5.69
2018-09-29T05:26:27.791Z,5.69
2018-09-29T05:28:55.063Z,5.64
2018-09-29T05:31:22.027Z,5.63
2018-09-29T05:33:48.978Z,5.57
2018-09-29T05:36:15.952Z,5.55
2018-09-29T05:41:16.629Z,5.55
2018-09-29T05:43:43.569Z,5.60
2018-09-29T05:46:10.522Z,5.61
2018-09-29T05:48:37.485Z,5.66
2018-09-29T05:51:04.438Z,5.68
2018-09-29T05:53:31.429Z,5.73
2018-09-29T05:55:58.370Z,5.74
2018-09-29T05:58:25.503Z,5.73
2018-09-29T06:00:52.456Z,5.67
2018-09-29T06:03:19.402Z,5.73
2018-09-29T06:05:46.391Z,5.70
2018-09-29T06:08:13.328Z,5.75
2018-09-29T06:10:47.254Z,5.88
2018-09-29T06:13:14.268Z,6.05
2018-09-29T06:15:41.166Z,6.21
2018-09-29T06:18:08.114Z,6.38
2018-09-29T06:20:35.065Z,6.52
2018-09-29T06:25:35.593Z,6.85
2018-09-29T06:28:02.690Z,6.95
2018-09-29T06:30:29.525Z,7.01
2018-09-29T06:32:56.566Z,7.11
2018-09-29T06:35:23.533Z,7.21
2018-09-29T06:37:51.250Z,7.27
2018-09-29T06:40:18.220Z,7.38
2018-09-29T06:42:45.178Z,7.44
2018-09-29T06:45:12.172Z,7.49
2018-09-29T06:47:45.847Z,7.62
2018-09-29T06:50:12.774Z,7.72
2018-09-29T06:52:39.726Z,7.78
2018-09-29T06:55:06.553Z,7.90
2018-09-29T06:57:33.493Z,8.00
2018-09-29T07:00:00.461Z,8.09
2018-09-29T07:02:27.430Z,8.22
2018-09-29T07:04:54.388Z,8.36
2018-09-29T07:07:21.371Z,8.37
2018-09-29T07:09:48.341Z,8.38
2018-09-29T07:12:15.309Z,8.44
2018-09-29T07:14:42.256Z,8.56
2018-09-29T07:17:09.255Z,8.66
2018-09-29T07:19:42.779Z,8.65
2018-09-29T07:22:09.745Z,8.63
2018-09-29T07:24:36.714Z,8.61
2018-09-29T07:27:03.700Z,8.57
2018-09-29T07:29:30.654Z,8.56
2018-09-29T07:31:57.602Z,8.67
2018-09-29T07:34:24.650Z,8.97
2018-09-29T07:36:51.625Z,9.28
2018-09-29T07:39:18.578Z,9.49
2018-09-29T07:41:45.537Z,9.73
2018-09-29T07:44:12.500Z,10.07
2018-09-29T07:46:39.498Z,10.30
2018-09-29T07:49:06.644Z,10.50
2018-09-29T07:51:33.606Z,10.92
2018-09-29T07:54:00.544Z,11.27
2018-09-29T07:56:27.537Z,11.39
2018-09-29T07:58:54.444Z,11.89
2018-09-29T08:01:21.380Z,12.00
2018-09-29T08:03:48.306Z,11.66
2018-09-29T08:06:15.278Z,11.44
2018-09-29T08:08:42.238Z,11.34
2018-09-29T08:11:09.177Z,11.26
2018-09-29T08:13:36.129Z,11.27
2018-09-29T08:16:03.089Z,11.32
2018-09-29T08:18:30.045Z,11.36
2018-09-29T08:20:56.989Z,11.43
2018-09-29T08:23:23.927Z,11.45
2018-09-29T08:25:50.873Z,11.65
2018-09-29T08:28:17.801Z,11.65
2018-09-29T08:30:44.752Z,11.81
2018-09-29T08:33:11.685Z,11.91
2018-09-29T08:35:38.617Z,11.97
2018-09-29T08:38:05.615Z,11.94
2018-09-29T08:40:32.562Z,11.95
2018-09-29T08:42:59.542Z,11.93
2018-09-29T08:45:26.488Z,11.92
2018-09-29T08:47:53.473Z,12.18
2018-09-29T08:50:20.415Z,12.18
2018-09-29T08:52:47.369Z,12.08
2018-09-29T08:55:14.324Z,12.04
2018-09-29T08:57:41.247Z,11.89
2018-09-29T09:00:08.216Z,11.76
2018-09-29T09:02:35.199Z,11.91
2018-09-29T09:05:02.166Z,12.07
2018-09-29T09:07:29.111Z,12.20
2018-09-29T09:09:56.040Z,12.34
2018-09-29T09:12:23.015Z,12.54
2018-09-29T09:14:49.964Z,12.70
2018-09-29T09:17:16.920Z,12.93
2018-09-29T09:19:43.882Z,12.91
2018-09-29T09:22:10.825Z,12.99
2018-09-29T09:24:37.761Z,13.16
2018-09-29T09:27:04.746Z,13.36
2018-09-29T09:29:31.677Z,13.61
2018-09-29T09:31:58.625Z,13.61
2018-09-29T09:34:25.569Z,13.73
2018-09-29T09:36:52.509Z,14.07
2018-09-29T09:39:19.454Z,14.24
2018-09-29T09:41:46.405Z,14.18
2018-09-29T09:44:13.342Z,14.33
2018-09-29T09:46:40.289Z,14.78
2018-09-29T09:49:07.226Z,15.14
2018-09-29T09:51:34.159Z,15.35
2018-09-29T09:54:01.117Z,15.33
2018-09-29T09:56:28.064Z,15.39
2018-09-29T09:58:55.105Z,15.49
2018-09-29T10:01:27.736Z,14.88
2018-09-29T10:03:54.697Z,14.22
2018-09-29T10:06:21.682Z,13.97
2018-09-29T10:08:48.622Z,13.72
2018-09-29T10:11:15.551Z,13.57
2018-09-29T10:13:42.510Z,13.37
2018-09-29T10:16:09.469Z,13.32
2018-09-29T10:18:36.441Z,13.42
2018-09-29T10:21:03.390Z,13.29
2018-09-29T10:23:30.339Z,13.30
2018-09-29T10:25:57.289Z,13.37
2018-09-29T10:28:24.242Z,13.39
2018-09-29T10:30:51.190Z,13.47
2018-09-29T10:33:18.146Z,13.49
2018-09-29T10:35:45.093Z,13.54
2018-09-29T10:38:12.034Z,13.53
2018-09-29T10:40:38.979Z,13.65
2018-09-29T10:43:05.958Z,13.72
2018-09-29T10:45:32.891Z,13.61
2018-09-29T10:47:59.861Z,13.80
2018-09-29T10:50:26.821Z,13.96
2018-09-29T10:52:53.821Z,14.19
2018-09-29T10:55:20.730Z,14.05
2018-09-29T10:57:47.677Z,14.06
2018-09-29T11:00:14.608Z,14.38
2018-09-29T11:02:41.612Z,14.36
2018-09-29T11:05:08.652Z,14.52
2018-09-29T11:07:35.497Z,14.75
2018-09-29T11:10:02.481Z,15.07
2018-09-29T11:12:29.424Z,15.00
2018-09-29T11:14:56.445Z,15.16
2018-09-29T11:17:23.391Z,15.49
2018-09-29T11:19:50.370Z,15.75
2018-09-29T11:22:17.321Z,16.00
2018-09-29T11:24:44.265Z,15.99
2018-09-29T11:27:11.209Z,15.89
2018-09-29T11:29:38.193Z,15.64
2018-09-29T11:32:05.145Z,15.43
2018-09-29T11:34:32.124Z,15.46
2018-09-29T11:36:59.105Z,15.56
2018-09-29T11:39:26.260Z,15.16
2018-09-29T11:41:53.032Z,14.72
2018-09-29T11:44:19.995Z,14.67
2018-09-29T11:46:46.947Z,14.48
2018-09-29T11:49:13.896Z,14.29
2018-09-29T11:51:40.841Z,14.16
2018-09-29T11:54:07.811Z,14.11
2018-09-29T11:56:34.774Z,14.14
2018-09-29T11:59:02.006Z,14.06
2018-09-29T12:01:28.998Z,13.90
2018-09-29T12:03:56.049Z,13.74
2018-09-29T12:06:23.074Z,13.71
2018-09-29T12:08:49.968Z,13.87
2018-09-29T12:11:17.126Z,14.00
2018-09-29T12:13:44.186Z,13.91
2018-09-29T12:16:11.121Z,13.82
2018-09-29T12:18:38.085Z,13.72
2018-09-29T12:21:05.076Z,13.61
2018-09-29T12:23:32.059Z,13.54
2018-09-29T12:25:58.997Z,13.58
2018-09-29T12:28:25.979Z,13.68
2018-09-29T12:30:52.914Z,13.71
2018-09-29T12:33:19.846Z,13.65
2018-09-29T12:35:46.796Z,13.68
2018-09-29T12:38:13.733Z,13.86
2018-09-29T12:40:40.665Z,13.89
2018-09-29T12:43:07.608Z,14.06
2018-09-29T12:45:34.666Z,14.16
2018-09-29T12:48:01.619Z,14.41
2018-09-29T12:50:28.571Z,14.55
2018-09-29T12:52:55.552Z,14.53
2018-09-29T12:55:22.505Z,14.21
2018-09-29T12:57:49.443Z,14.13
2018-09-29T13:00:16.402Z,14.52
2018-09-29T13:02:43.347Z,15.28
2018-09-29T13:05:10.345Z,15.17
2018-09-29T13:07:37.245Z,14.83
2018-09-29T13:10:04.255Z,14.38
2018-09-29T13:12:32.648Z,14.19
2018-09-29T13:14:59.895Z,14.02
2018-09-29T13:17:27.539Z,13.70
2018-09-29T13:19:54.539Z,13.61
2018-09-29T13:22:21.472Z,13.56
2018-09-29T13:24:49.446Z,13.51
2018-09-29T13:27:16.377Z,13.43
2018-09-29T13:29:44.533Z,13.34
2018-09-29T13:32:18.138Z,13.31
2018-09-29T13:34:52.072Z,13.28
2018-09-29T13:37:19.030Z,13.29
2018-09-29T13:39:45.973Z,13.38
2018-09-29T13:42:12.891Z,13.51
2018-09-29T13:44:39.838Z,13.59
2018-09-29T13:47:06.813Z,13.62
2018-09-29T13:49:33.758Z,13.61
2018-09-29T13:52:00.679Z,13.54
2018-09-29T13:54:27.637Z,13.58
2018-09-29T13:56:54.568Z,13.57
2018-09-29T13:59:21.530Z,13.57
2018-09-29T14:01:48.472Z,13.49
2018-09-29T14:04:15.405Z,13.42
2018-09-29T14:06:42.346Z,13.32
2018-09-29T14:09:09.841Z,13.28
2018-09-29T14:11:36.823Z,13.29
2018-09-29T14:14:05.270Z,13.35
2018-09-29T14:16:32.227Z,13.48
2018-09-29T14:18:59.196Z,13.57
2018-09-29T14:21:26.187Z,13.53
2018-09-29T14:23:53.114Z,13.50
2018-09-29T14:26:21.757Z,13.49
2018-09-29T14:28:48.696Z,13.40
2018-09-29T14:31:15.628Z,13.37
2018-09-29T14:33:42.709Z,13.40
2018-09-29T14:36:10.167Z,13.38
2018-09-29T14:38:37.144Z,13.38
2018-09-29T14:41:07.729Z,13.38
2018-09-29T14:43:34.820Z,13.37
2018-09-29T14:46:01.829Z,13.39
2018-09-29T14:48:28.777Z,13.36
2018-09-29T14:50:55.756Z,13.31
2018-09-29T14:53:22.689Z,13.36
2018-09-29T14:55:49.669Z,13.32
2018-09-29T14:58:16.639Z,13.34
2018-09-29T15:00:43.918Z,13.28
2018-09-29T15:03:10.872Z,13.34
2018-09-29T15:05:37.949Z,13.35
2018-09-29T15:08:05.036Z,13.33
2018-09-29T15:10:31.993Z,13.38
2018-09-29T15:12:58.958Z,13.31
2018-09-29T15:15:25.939Z,13.29
2018-09-29T15:17:52.901Z,13.23
2018-09-29T15:20:19.917Z,13.20
2018-09-29T15:22:46.854Z,13.19
2018-09-29T15:25:13.789Z,13.21
2018-09-29T15:27:40.950Z,13.24
2018-09-29T15:30:07.901Z,13.22
2018-09-29T15:32:34.836Z,13.18
2018-09-29T15:35:01.778Z,13.18
2018-09-29T15:37:28.713Z,13.21
2018-09-29T15:39:55.764Z,13.20
2018-09-29T15:42:22.755Z,13.20
2018-09-29T15:44:49.728Z,13.16
2018-09-29T15:47:16.614Z,13.12
2018-09-29T15:49:43.545Z,13.10
2018-09-29T15:52:10.496Z,13.05
2018-09-29T15:54:37.417Z,13.07
2018-09-29T15:57:04.374Z,13.01
2018-09-29T15:59:31.438Z,13.01
2018-09-29T16:01:58.394Z,12.96
2018-09-29T16:04:25.329Z,12.95
2018-09-29T16:06:52.266Z,12.95
2018-09-29T16:09:19.242Z,12.90
2018-09-29T16:11:46.187Z,12.88
2018-09-29T16:14:13.138Z,12.84
2018-09-29T16:16:40.096Z,12.85
2018-09-29T16:19:07.093Z,12.82
2018-09-29T16:21:34.107Z,12.73
2018-09-29T16:24:01.014Z,12.67
2018-09-29T16:26:27.966Z,12.65
2018-09-29T16:28:54.917Z,12.59
2018-09-29T16:31:21.848Z,12.55
2018-09-29T16:33:48.793Z,12.50
2018-09-29T16:36:15.731Z,12.43
2018-09-29T16:38:42.669Z,12.46
2018-09-29T16:41:09.589Z,12.41
2018-09-29T16:43:36.603Z,12.39
2018-09-29T16:46:03.599Z,12.35
2018-09-29T16:48:30.510Z,12.32
2018-09-29T16:50:57.490Z,12.30
2018-09-29T16:53:24.471Z,12.28
2018-09-29T16:55:51.406Z,12.23
2018-09-29T16:58:18.348Z,12.17
2018-09-29T17:00:45.282Z,12.11
2018-09-29T17:03:12.228Z,12.06
2018-09-29T17:05:39.148Z,12.00
2018-09-29T17:08:06.081Z,11.96
2018-09-29T17:10:33.025Z,11.84
2018-09-29T17:12:59.966Z,11.74
2018-09-29T17:15:26.925Z,11.61
2018-09-29T17:17:53.870Z,11.51
2018-09-29T17:20:20.818Z,11.40
2018-09-29T17:22:47.733Z,11.36
2018-09-29T17:25:15.502Z,11.32
2018-09-29T17:27:42.420Z,11.36
2018-09-29T17:30:09.397Z,11.36
2018-09-29T17:32:36.372Z,11.35
2018-09-29T17:35:03.574Z,11.31
2018-09-29T17:37:30.591Z,11.27
2018-09-29T17:39:57.541Z,11.24
2018-09-29T17:42:24.518Z,11.14
2018-09-29T17:44:54.356Z,11.07
2018-09-29T17:47:21.316Z,11.01
2018-09-29T17:49:48.280Z,10.97
2018-09-29T17:52:15.217Z,10.99
2018-09-29T17:54:42.149Z,10.92
2018-09-29T17:57:09.106Z,10.88
2018-09-29T17:59:36.135Z,10.82
2018-09-29T18:02:03.150Z,10.76
2018-09-29T18:04:30.188Z,10.73
2018-09-29T18:06:57.092Z,10.69
2018-09-29T18:09:24.026Z,10.66
2018-09-29T18:11:50.973Z,10.55
2018-09-29T18:14:17.936Z,10.61
2018-09-29T18:16:45.344Z,10.59
2018-09-29T18:19:12.457Z,10.58
2018-09-29T18:21:39.386Z,10.53
2018-09-29T18:24:06.364Z,10.49
2018-09-29T18:26:33.332Z,10.42
2018-09-29T18:29:00.296Z,10.39
2018-09-29T18:31:27.259Z,10.31
2018-09-29T18:33:54.236Z,10.26
2018-09-29T18:36:21.170Z,10.22
2018-09-29T18:38:48.124Z,10.17
2018-09-29T18:41:15.064Z,10.10
2018-09-29T18:43:42.026Z,10.06
2018-09-29T18:46:09.002Z,10.06
2018-09-29T18:48:35.976Z,10.01
2018-09-29T18:51:02.893Z,9.98
2018-09-29T18:53:29.826Z,9.95
2018-09-29T18:55:56.861Z,9.95
2018-09-29T19:00:57.337Z,9.95
2018-09-29T19:03:24.281Z,9.93
2018-09-29T19:05:51.229Z,9.90
2018-09-29T19:08:18.200Z,9.89
2018-09-29T19:10:45.133Z,9.87
2018-09-29T19:13:12.096Z,9.85
2018-09-29T19:15:39.061Z,9.83
2018-09-29T19:18:06.059Z,9.81
2018-09-29T19:20:33.289Z,9.78
2018-09-29T19:23:00.359Z,9.78
2018-09-29T19:25:27.279Z,9.79
2018-09-29T19:28:01.157Z,9.78
2018-09-29T19:30:28.089Z,9.68
2018-09-29T19:32:55.057Z,9.68
2018-09-29T19:35:22.022Z,9.62
2018-09-29T19:37:48.952Z,9.58
2018-09-29T19:40:15.910Z,9.54
2018-09-29T19:42:42.868Z,9.53
2018-09-29T19:45:09.837Z,9.49
2018-09-29T19:47:36.762Z,9.44
2018-09-29T19:50:03.733Z,9.48
2018-09-29T19:52:30.670Z,9.46
2018-09-29T19:54:57.613Z,9.45
2018-09-29T19:59:58.286Z,9.32
2018-09-29T20:02:25.251Z,9.30
2018-09-29T20:04:52.225Z,9.29
2018-09-29T20:07:19.185Z,9.23
2018-09-29T20:09:46.136Z,9.22
2018-09-29T20:12:13.077Z,9.18
2018-09-29T20:14:40.044Z,9.16
2018-09-29T20:17:06.986Z,9.15
2018-09-29T20:19:33.939Z,9.14
2018-09-29T20:22:00.905Z,9.17
2018-09-29T20:24:27.944Z,9.23
2018-09-29T20:26:54.831Z,9.26
2018-09-29T20:29:21.805Z,9.25
2018-09-29T20:31:48.754Z,9.24
2018-09-29T20:34:15.717Z,9.23
2018-09-29T20:36:42.678Z,9.23
2018-09-29T20:39:11.906Z,9.23
2018-09-29T20:41:39.124Z,9.25
2018-09-29T20:44:06.076Z,9.23
2018-09-29T20:46:33.025Z,9.24
2018-09-29T20:48:59.985Z,9.23
2018-09-29T20:51:26.921Z,9.17
2018-09-29T20:53:54.152Z,9.15
2018-09-29T20:56:21.087Z,9.15
2018-09-29T20:58:54.751Z,9.15
2018-09-29T21:01:21.740Z,9.10
2018-09-29T21:03:48.738Z,9.06
2018-09-29T21:06:15.690Z,8.99
2018-09-29T21:08:42.626Z,9.00
2018-09-29T21:11:09.564Z,8.97
2018-09-29T21:13:36.536Z,8.94
2018-09-29T21:16:03.472Z,8.91
2018-09-29T21:18:32.160Z,8.92
2018-09-29T21:20:59.505Z,8.90
2018-09-29T21:23:26.446Z,8.90
2018-09-29T21:25:53.398Z,8.89
2018-09-29T21:28:20.403Z,8.83
2018-09-29T21:30:47.304Z,8.82
2018-09-29T21:33:14.258Z,8.80
2018-09-29T21:35:41.336Z,8.75
2018-09-29T21:38:08.260Z,8.71
2018-09-29T21:40:35.228Z,8.66
2018-09-29T21:43:02.147Z,8.60
2018-09-29T21:45:29.113Z,8.55
2018-09-29T21:47:56.113Z,8.49
2018-09-29T21:50:23.050Z,8.43
2018-09-29T21:52:50.001Z,8.40
2018-09-29T21:55:16.965Z,8.38
2018-09-29T21:57:43.903Z,8.40
2018-09-29T22:00:10.890Z,8.38
2018-09-29T22:02:37.845Z,8.38
2018-09-29T22:05:04.854Z,8.39
2018-09-29T22:07:31.797Z,8.37
2018-09-29T22:09:58.765Z,8.37
2018-09-29T22:12:25.709Z,8.34
2018-09-29T22:14:52.653Z,8.35
2018-09-29T22:17:19.593Z,8.37
2018-09-29T22:19:46.544Z,8.34
2018-09-29T22:22:13.497Z,8.35
2018-09-29T22:24:40.432Z,8.36
2018-09-29T22:27:07.385Z,8.37
2018-09-29T22:29:34.321Z,8.35
2018-09-29T22:32:01.349Z,8.32
2018-09-29T22:34:28.321Z,8.26
2018-09-29T22:36:55.285Z,8.25
2018-09-29T22:39:22.211Z,8.22
2018-09-29T22:41:49.160Z,8.22
2018-09-29T22:44:16.096Z,8.19
2018-09-29T22:46:43.038Z,8.10
2018-09-29T22:49:10.047Z,8.08
2018-09-29T22:51:37.100Z,8.05
2018-09-29T22:54:04.078Z,8.01
2018-09-29T22:56:31.043Z,7.96
2018-09-29T22:58:57.978Z,7.97
2018-09-29T23:01:24.933Z,7.96
2018-09-29T23:03:51.893Z,7.97
2018-09-29T23:06:18.837Z,7.96
2018-09-29T23:08:45.784Z,7.96
2018-09-29T23:11:12.753Z,7.95
2018-09-29T23:13:39.684Z,7.93
2018-09-29T23:16:06.838Z,7.90
2018-09-29T23:18:33.753Z,7.87
2018-09-29T23:21:00.720Z,7.82
2018-09-29T23:23:27.633Z,7.82
2018-09-29T23:25:54.626Z,7.80
2018-09-29T23:28:21.585Z,7.75
2018-09-29T23:30:48.548Z,7.74
2018-09-29T23:33:15.497Z,7.72
2018-09-29T23:35:42.439Z,7.70
2018-09-29T23:38:09.429Z,7.66
2018-09-29T23:40:36.372Z,7.63
2018-09-29T23:43:03.322Z,7.60
2018-09-29T23:45:30.342Z,7.58
2018-09-29T23:47:57.413Z,7.57
2018-09-29T23:50:24.334Z,7.55
2018-09-29T23:52:51.302Z,7.50
2018-09-29T23:55:18.266Z,7.37
2018-09-29T23:57:45.261Z,7.42
